Time;durP1;ratioP1;P1;durP2;ratioP2;P2;SDS_P1;SDS_P2;PMS_P1;PMS_P2;Temp;Humidity;BMP_temperature;BMP_pressure;BME280_temperature;BME280_humidity;BME280_pressure;Samples;Min_cycle;Max_cycle;Signal;HPM_P1;HPM_P2
2023/02/04 00:01:34;;;;;;;11.10;7.60;;;;;;;-0.79;92.15;99854.36;107621;1254;98645;-60
2023/02/04 00:04:12;;;;;;;10.60;7.40;;;;;;;-0.81;92.16;99867.10;107644;1255;88603;-55
2023/02/04 00:06:52;;;;;;;11.10;7.80;;;;;;;-0.84;92.41;99877.95;107576;1251;94019;-56
2023/02/04 00:09:32;;;;;;;11.40;7.70;;;;;;;-0.88;92.71;99880.73;107624;1252;78809;-55
2023/02/04 00:12:11;;;;;;;11.00;7.20;;;;;;;-0.90;92.58;99899.48;107644;1256;81524;-56
2023/02/04 00:14:51;;;;;;;11.20;7.50;;;;;;;-0.89;92.54;99905.38;107636;1253;97685;-56
2023/02/04 00:17:27;;;;;;;10.00;7.80;;;;;;;-0.87;92.76;99919.17;107668;1256;89423;-56
2023/02/04 00:20:03;;;;;;;10.90;8.50;;;;;;;-0.83;92.63;99929.33;107717;1251;95074;-57
2023/02/04 00:22:40;;;;;;;11.80;8.30;;;;;;;-0.82;92.69;99929.88;107711;1256;80515;-57
2023/02/04 00:25:21;;;;;;;10.00;7.30;;;;;;;-0.82;92.62;99934.89;107736;1254;81574;-56
2023/02/04 00:30:57;;;;;;;9.30;7.10;;;;;;;-0.83;92.69;99938.99;107786;1253;88712;-57
2023/02/04 00:33:41;;;;;;;10.00;6.50;;;;;;;-0.84;92.80;99943.34;107758;1251;96106;-58
2023/02/04 00:36:16;;;;;;;11.50;6.80;;;;;;;-0.83;92.82;99949.23;107650;1254;80774;-57
2023/02/04 00:39:04;;;;;;;8.20;6.40;;;;;;;-0.81;92.93;99957.75;107644;1254;82094;-56
2023/02/04 00:41:42;;;;;;;10.50;6.90;;;;;;;-0.85;93.09;99972.80;107612;1257;99287;-55
2023/02/04 00:44:25;;;;;;;9.30;6.90;;;;;;;-0.84;92.99;99980.46;107717;1251;88300;-59
2023/02/04 00:47:04;;;;;;;10.80;7.40;;;;;;;-0.83;93.08;99991.18;107651;1255;93704;-58
2023/02/04 00:49:48;;;;;;;10.80;7.40;;;;;;;-0.86;93.18;99994.08;107647;1255;80901;-55
2023/02/04 00:52:30;;;;;;;8.40;6.00;;;;;;;-0.86;93.16;100001.98;107603;1254;81555;-56
2023/02/04 00:55:09;;;;;;;11.20;7.50;;;;;;;-0.89;93.18;100013.38;107669;1254;98189;-57
2023/02/04 00:57:50;;;;;;;9.30;6.70;;;;;;;-0.86;93.09;100030.52;107703;1254;86821;-57
2023/02/04 01:00:25;;;;;;;7.50;6.70;;;;;;;-0.87;93.10;100037.42;107626;1255;93790;-55
2023/02/04 01:03:03;;;;;;;12.00;7.10;;;;;;;-0.88;93.09;100042.85;107609;1257;80812;-56
2023/02/04 01:05:45;;;;;;;10.30;6.90;;;;;;;-0.85;93.19;100050.76;107659;1255;81858;-57
2023/02/04 01:08:24;;;;;;;10.50;7.20;;;;;;;-0.85;93.02;100062.02;107707;1251;98900;-55
2023/02/04 01:11:08;;;;;;;9.20;6.50;;;;;;;-0.86;93.11;100070.45;107658;1253;88884;-58
2023/02/04 01:13:47;;;;;;;8.90;6.90;;;;;;;-0.91;93.17;100077.89;107715;1255;93254;-58
2023/02/04 01:16:35;;;;;;;12.80;7.90;;;;;;;-0.93;93.07;100082.15;107654;1254;82985;-56
2023/02/04 01:19:17;;;;;;;11.70;7.50;;;;;;;-0.91;93.05;100093.88;107684;1256;82211;-55
2023/02/04 01:21:59;;;;;;;9.70;7.40;;;;;;;-0.92;93.10;100096.04;107643;1258;97608;-55
2023/02/04 01:24:34;;;;;;;9.70;7.30;;;;;;;-0.91;93.11;100104.23;107665;1251;89029;-61
2023/02/04 01:27:12;;;;;;;;;;;;;;;-0.87;93.05;100114.20;107724;1263;92554;-61
2023/02/04 01:29:56;;;;;;;10.80;7.70;;;;;;;-0.87;92.96;100122.79;107723;1251;80651;-59
2023/02/04 01:32:41;;;;;;;10.00;7.20;;;;;;;-0.84;93.00;100134.05;107750;1251;82986;-61
2023/02/04 01:35:19;;;;;;;11.20;7.20;;;;;;;-0.85;92.94;100141.55;107742;1251;97406;-60
2023/02/04 01:37:56;;;;;;;8.70;6.80;;;;;;;-0.85;92.92;100150.73;107761;1254;88092;-60
2023/02/04 01:40:38;;;;;;;9.80;8.00;;;;;;;-0.82;92.82;100153.02;107656;1252;92646;-57
2023/02/04 01:43:17;;;;;;;;;;;;;;;-0.82;92.73;100166.61;107630;1251;81241;-58
2023/02/04 01:45:57;;;;;;;9.90;7.70;;;;;;;-0.85;92.87;100169.99;107700;1251;81342;-58
2023/02/04 01:48:39;;;;;;;11.00;7.90;;;;;;;-0.82;92.83;100179.02;107683;1251;98559;-58
2023/02/04 01:51:27;;;;;;;11.80;7.80;;;;;;;-0.81;92.90;100188.31;107728;1254;87483;-58
2023/02/04 01:54:04;;;;;;;11.70;7.60;;;;;;;-0.81;92.72;100202.80;107749;1254;96193;-61
2023/02/04 01:56:54;;;;;;;9.90;7.20;;;;;;;-0.78;92.71;100214.42;107653;1256;79289;-60
2023/02/04 01:59:39;;;;;;;9.10;6.80;;;;;;;-0.77;92.65;100222.59;107719;1256;82835;-60
2023/02/04 02:02:44;;;;;;;10.90;7.60;;;;;;;-0.75;92.59;100231.28;107802;1254;97291;-61
2023/02/04 02:05:24;;;;;;;10.60;6.60;;;;;;;-0.75;92.64;100237.64;107797;1251;87538;-61
2023/02/04 02:08:02;;;;;;;9.30;6.40;;;;;;;-0.76;92.56;100245.00;107785;1251;91684;-61
2023/02/04 02:10:49;;;;;;;9.00;6.60;;;;;;;-0.79;92.54;100253.13;107624;1251;81752;-58
2023/02/04 02:13:31;;;;;;;10.70;7.30;;;;;;;-0.81;92.49;100265.18;107649;1251;82881;-61
2023/02/04 02:16:08;;;;;;;8.40;6.30;;;;;;;-0.82;92.45;100276.60;107649;1251;97743;-57
2023/02/04 02:18:52;;;;;;;9.90;6.10;;;;;;;-0.83;92.46;100285.48;107691;1254;88048;-59
2023/02/04 02:21:37;;;;;;;11.20;6.80;;;;;;;-0.87;92.34;100296.23;107734;1250;94593;-60
2023/02/04 02:24:35;;;;;;;10.70;6.30;;;;;;;-0.87;92.26;100314.24;107708;1251;81094;-58
2023/02/04 02:27:18;;;;;;;9.40;6.50;;;;;;;-0.87;92.25;100324.83;107662;1250;82964;-57
2023/02/04 02:30:00;;;;;;;10.50;6.80;;;;;;;-0.85;92.14;100343.95;107732;1254;99339;-58
2023/02/04 02:32:40;;;;;;;13.40;7.20;;;;;;;-0.81;92.06;100349.17;107725;1251;87536;-58
2023/02/04 02:35:18;;;;;;;8.80;5.90;;;;;;;-0.80;92.05;100360.35;107672;1254;94838;-58
2023/02/04 02:38:01;;;;;;;8.20;6.20;;;;;;;-0.80;92.04;100373.29;107663;1254;81394;-57
2023/02/04 02:40:42;;;;;;;12.00;7.40;;;;;;;-0.78;91.96;100384.27;107650;1251;83034;-60
2023/02/04 02:43:24;;;;;;;7.70;5.90;;;;;;;-0.79;91.86;100386.63;107662;1251;98580;-58
2023/02/04 02:46:10;;;;;;;8.40;6.20;;;;;;;-0.79;91.80;100399.35;107642;1254;86838;-56
2023/02/04 02:48:49;;;;;;;9.00;6.00;;;;;;;-0.82;91.81;100407.89;107647;1254;93852;-60
2023/02/04 02:51:30;;;;;;;10.80;6.50;;;;;;;-0.78;91.86;100418.90;107634;1254;80099;-60
2023/02/04 02:54:19;;;;;;;9.10;5.70;;;;;;;-0.76;91.72;100429.02;107654;1250;80684;-60
2023/02/04 02:56:58;;;;;;;8.20;5.40;;;;;;;-0.70;91.68;100442.32;107690;1254;95931;-61
2023/02/04 02:59:38;;;;;;;11.90;7.00;;;;;;;-0.70;91.63;100443.05;107743;1251;87042;-61
2023/02/04 03:02:20;;;;;;;9.60;6.30;;;;;;;-0.68;91.59;100448.71;107600;1251;94909;-61
2023/02/04 03:04:59;;;;;;;7.90;5.60;;;;;;;-0.71;91.68;100457.13;107633;1251;82593;-58
2023/02/04 03:07:37;;;;;;;8.00;5.80;;;;;;;-0.74;91.75;100459.93;107646;1251;82055;-57
2023/02/04 03:10:12;;;;;;;9.00;5.70;;;;;;;-0.74;91.76;100470.18;107700;1254;97297;-60
2023/02/04 03:12:52;;;;;;;7.90;5.70;;;;;;;-0.73;91.74;100482.68;107745;1254;88319;-60
2023/02/04 03:15:33;;;;;;;9.10;5.70;;;;;;;-0.68;91.65;100492.06;107695;1254;94337;-58
2023/02/04 03:18:11;;;;;;;8.10;5.10;;;;;;;-0.66;91.68;100496.67;107711;1251;80041;-57
2023/02/04 03:20:56;;;;;;;9.80;5.90;;;;;;;-0.65;91.56;100506.52;107658;1254;83035;-57
2023/02/04 03:23:36;;;;;;;5.70;4.80;;;;;;;-0.65;91.48;100519.96;107712;1252;98915;-56
2023/02/04 03:26:14;;;;;;;12.20;6.60;;;;;;;-0.69;91.50;100527.13;107698;1251;88754;-57
2023/02/04 03:29:00;;;;;;;10.00;5.60;;;;;;;-0.70;91.49;100541.33;107675;1250;95298;-55
2023/02/04 03:31:41;;;;;;;7.60;5.60;;;;;;;-0.70;91.55;100554.98;107644;1251;81318;-55
2023/02/04 03:34:22;;;;;;;11.70;7.10;;;;;;;-0.70;91.49;100570.68;107716;1254;82188;-62
2023/02/04 03:37:06;;;;;;;9.80;6.20;;;;;;;-0.71;91.50;100580.81;107650;1254;99082;-61
2023/02/04 03:39:53;;;;;;;8.30;5.50;;;;;;;-0.69;91.39;100591.83;107709;1251;89464;-62
2023/02/04 03:42:38;;;;;;;9.70;5.90;;;;;;;-0.70;91.33;100591.22;107610;1254;95468;-61
2023/02/04 03:45:17;;;;;;;8.30;4.90;;;;;;;-0.77;91.35;100595.11;107683;1254;80796;-59
2023/02/04 03:48:00;;;;;;;9.70;6.60;;;;;;;-0.83;91.14;100602.99;107658;1254;83054;-59
2023/02/04 03:50:44;;;;;;;8.80;5.00;;;;;;;-0.93;91.13;100614.70;107651;1250;98438;-60
2023/02/04 03:53:21;;;;;;;7.90;5.10;;;;;;;-1.06;91.09;100628.36;107682;1251;89452;-58
2023/02/04 03:56:03;;;;;;;7.50;4.80;;;;;;;-1.15;90.91;100643.00;107654;1251;94192;-58
2023/02/04 03:58:41;;;;;;;9.00;5.50;;;;;;;-1.26;90.81;100652.95;107465;1254;79946;-59
2023/02/04 04:01:25;;;;;;;12.30;7.40;;;;;;;-1.39;90.90;100660.04;107658;1251;81545;-58
2023/02/04 04:04:09;;;;;;;8.60;5.70;;;;;;;-1.50;90.82;100665.95;107683;1251;99315;-57
2023/02/04 04:06:51;;;;;;;9.90;6.50;;;;;;;-1.58;90.98;100679.62;107712;1254;88400;-58
2023/02/04 04:09:30;;;;;;;8.70;5.50;;;;;;;-1.65;90.92;100689.30;107693;1251;94472;-58
2023/02/04 04:12:08;;;;;;;9.40;5.70;;;;;;;-1.70;90.88;100696.35;107646;1253;79390;-58
2023/02/04 04:14:52;;;;;;;8.00;5.50;;;;;;;-1.73;91.00;100701.64;107686;1254;81737;-58
2023/02/04 04:17:29;;;;;;;6.00;4.00;;;;;;;-1.79;90.91;100705.59;107624;1251;97794;-57
2023/02/04 04:20:06;;;;;;;10.50;6.10;;;;;;;-1.84;90.97;100711.73;107663;1254;88479;-58
2023/02/04 04:22:46;;;;;;;14.00;8.20;;;;;;;-1.88;91.08;100724.32;107639;1254;94736;-59
2023/02/04 04:25:29;;;;;;;8.70;6.20;;;;;;;-1.91;91.17;100733.71;107659;1251;78860;-58
2023/02/04 04:28:05;;;;;;;9.50;6.70;;;;;;;-1.90;91.28;100744.09;107617;1254;82977;-58
2023/02/04 04:30:44;;;;;;;10.00;5.90;;;;;;;-1.89;91.33;100757.79;107643;1251;97398;-59
2023/02/04 04:33:29;;;;;;;15.40;10.30;;;;;;;-1.84;91.53;100771.92;107631;1251;87598;-58
2023/02/04 04:36:07;;;;;;;12.00;8.30;;;;;;;-1.76;91.55;100777.94;107636;1251;93231;-57
2023/02/04 04:38:50;;;;;;;13.30;9.40;;;;;;;-1.74;91.51;100781.15;107664;1251;81533;-60
2023/02/04 04:41:35;;;;;;;16.70;11.60;;;;;;;-1.72;91.38;100787.88;107744;1254;81592;-60
2023/02/04 04:44:18;;;;;;;12.10;9.30;;;;;;;-1.68;91.48;100795.75;107755;1254;99002;-57
2023/02/04 04:46:59;;;;;;;9.30;6.50;;;;;;;-1.64;91.54;100804.15;107655;1251;87607;-58
2023/02/04 04:49:42;;;;;;;10.30;7.30;;;;;;;-1.57;91.75;100804.91;107725;1254;94507;-58
2023/02/04 04:52:22;;;;;;;9.20;6.40;;;;;;;-1.49;91.66;100810.02;107724;1254;82278;-58
2023/02/04 04:55:01;;;;;;;11.70;5.90;;;;;;;-1.46;91.79;100819.31;107779;1251;82442;-61
2023/02/04 04:57:44;;;;;;;10.10;5.90;;;;;;;-1.40;91.73;100830.41;107757;1251;96741;-58
2023/02/04 05:00:23;;;;;;;10.10;5.60;;;;;;;-1.35;91.76;100836.09;107647;1251;89846;-57
2023/02/04 05:03:06;;;;;;;11.90;5.60;;;;;;;-1.30;91.72;100845.10;107640;1251;94297;-57
2023/02/04 05:05:49;;;;;;;10.40;6.10;;;;;;;-1.25;91.59;100850.90;107593;1251;78316;-57
2023/02/04 05:08:33;;;;;;;8.70;6.30;;;;;;;-1.24;91.78;100861.45;107625;1254;81723;-56
2023/02/04 05:11:08;;;;;;;8.20;5.20;;;;;;;-1.23;91.67;100867.55;107633;1251;98958;-57
2023/02/04 05:13:51;;;;;;;10.90;5.90;;;;;;;-1.22;91.56;100874.60;107637;1251;85758;-56
2023/02/04 05:16:28;;;;;;;8.30;5.70;;;;;;;-1.23;91.53;100891.08;107663;1251;94362;-57
2023/02/04 05:19:07;;;;;;;12.10;5.70;;;;;;;-1.23;91.53;100893.71;107667;1254;81092;-58
2023/02/04 05:21:51;;;;;;;8.50;5.30;;;;;;;-1.19;91.49;100901.77;107623;1251;80867;-58
2023/02/04 05:24:35;;;;;;;8.90;5.60;;;;;;;-1.16;91.47;100905.45;107666;1251;97508;-58
2023/02/04 05:27:16;;;;;;;7.30;5.50;;;;;;;-1.12;91.37;100912.63;107655;1251;88709;-58
2023/02/04 05:30:02;;;;;;;9.70;6.00;;;;;;;-1.13;91.39;100922.58;107670;1254;94842;-56
2023/02/04 05:32:48;;;;;;;7.70;5.00;;;;;;;-1.12;91.39;100929.05;107659;1250;80484;-55
2023/02/04 05:35:28;;;;;;;10.20;5.40;;;;;;;-1.11;91.28;100936.95;107690;1251;82653;-57
2023/02/04 05:38:08;;;;;;;7.60;4.50;;;;;;;-1.11;91.25;100945.77;107681;1251;99256;-57
2023/02/04 05:40:54;;;;;;;7.10;5.10;;;;;;;-1.09;91.26;100958.35;107789;1251;87662;-58
2023/02/04 05:43:31;;;;;;;6.20;3.90;;;;;;;-1.10;91.03;100968.34;107766;1251;92903;-57
2023/02/04 05:46:06;;;;;;;7.10;4.40;;;;;;;-1.12;90.93;100975.86;107679;1251;79400;-57
2023/02/04 05:48:47;;;;;;;5.40;3.80;;;;;;;-1.14;90.84;100986.44;107781;1251;81520;-55
2023/02/04 05:51:32;;;;;;;9.30;4.90;;;;;;;-1.19;90.74;100997.04;107731;1254;98943;-55
2023/02/04 05:54:11;;;;;;;6.80;4.60;;;;;;;-1.27;90.82;101008.47;107749;1251;89319;-56
2023/02/04 05:56:50;;;;;;;8.20;5.10;;;;;;;-1.30;90.56;101019.83;107708;1254;95380;-55
2023/02/04 05:59:27;;;;;;;7.60;4.90;;;;;;;-1.36;90.62;101034.19;107738;1252;80529;-59
2023/02/04 06:02:10;;;;;;;8.40;4.80;;;;;;;-1.39;90.73;101044.77;107828;1250;81986;-57
2023/02/04 06:04:54;;;;;;;9.20;5.90;;;;;;;-1.38;90.66;101054.41;107759;1254;97119;-55
2023/02/04 06:07:31;;;;;;;7.40;4.30;;;;;;;-1.40;90.71;101060.20;107728;1251;86936;-55
2023/02/04 06:10:08;;;;;;;8.40;4.90;;;;;;;-1.44;90.57;101070.17;107762;1251;95515;-58
2023/02/04 06:12:45;;;;;;;11.00;5.30;;;;;;;-1.51;90.61;101075.75;107792;1251;81764;-58
2023/02/04 06:15:27;;;;;;;8.70;5.40;;;;;;;-1.54;90.37;101088.80;107686;1251;81163;-55
2023/02/04 06:18:10;;;;;;;9.50;5.30;;;;;;;-1.60;90.30;101096.46;107740;1251;99173;-56
2023/02/04 06:20:50;;;;;;;7.70;4.90;;;;;;;-1.63;90.22;101101.58;107785;1250;87185;-57
2023/02/04 06:23:32;;;;;;;7.10;4.60;;;;;;;-1.69;90.28;101106.55;107769;1251;93958;-56
2023/02/04 06:26:15;;;;;;;8.40;5.00;;;;;;;-1.74;90.25;101114.65;107742;1254;79095;-55
2023/02/04 06:28:55;;;;;;;7.40;4.90;;;;;;;-1.84;90.07;101122.66;107870;1250;81858;-55
2023/02/04 06:31:38;;;;;;;8.90;5.00;;;;;;;-1.94;90.02;101132.08;107791;1251;98370;-57
2023/02/04 06:34:21;;;;;;;7.20;4.60;;;;;;;-2.07;89.95;101146.29;107775;1251;88130;-55
2023/02/04 06:37:01;;;;;;;8.50;5.10;;;;;;;-2.19;89.95;101154.95;107712;1251;95719;-56
2023/02/04 06:39:42;;;;;;;10.00;5.00;;;;;;;-2.22;89.85;101160.24;107707;1251;81258;-57
2023/02/04 06:42:24;;;;;;;7.80;5.20;;;;;;;-2.28;89.87;101168.19;107696;1251;80759;-58
2023/02/04 06:45:06;;;;;;;7.50;4.60;;;;;;;-2.27;89.80;101178.36;107721;1254;96567;-58
2023/02/04 06:47:52;;;;;;;7.30;5.20;;;;;;;-2.25;89.93;101187.42;107715;1251;88378;-58
2023/02/04 06:50:33;;;;;;;8.70;5.40;;;;;;;-2.25;89.92;101194.48;107609;1251;94220;-56
2023/02/04 06:53:13;;;;;;;8.10;5.20;;;;;;;-2.29;89.80;101202.49;107593;1251;79588;-56
2023/02/04 06:55:54;;;;;;;8.60;5.10;;;;;;;-2.29;89.74;101209.39;107673;1251;80551;-56
2023/02/04 06:58:31;;;;;;;9.30;4.70;;;;;;;-2.20;89.83;101213.98;107640;1251;97904;-56
2023/02/04 07:01:08;;;;;;;7.30;4.50;;;;;;;-1.89;89.94;101213.52;107689;1251;87028;-55
2023/02/04 07:03:50;;;;;;;6.80;4.80;;;;;;;-1.61;89.66;101218.73;107657;1254;92216;-58
2023/02/04 07:06:25;;;;;;;7.80;4.60;;;;;;;-1.20;89.47;101225.77;107623;1251;81811;-58
2023/02/04 07:09:01;;;;;;;9.70;4.30;;;;;;;-0.92;89.33;101234.75;107682;1251;80160;-55
2023/02/04 07:11:38;;;;;;;6.60;4.60;;;;;;;-0.38;88.89;101242.73;107672;1254;97473;-55
2023/02/04 07:14:17;;;;;;;5.70;4.30;;;;;;;0.87;88.50;101242.25;107695;1251;88635;-56
2023/02/04 07:16:59;;;;;;;6.30;4.10;;;;;;;2.01;87.85;101251.32;107694;1254;94259;-56
2023/02/04 07:19:47;;;;;;;5.60;4.10;;;;;;;3.04;87.76;101254.89;107759;1251;78719;-57
2023/02/04 07:22:23;;;;;;;;;;;;;;;4.06;86.95;101254.25;107704;1254;83151;-57
2023/02/04 07:25:03;;;;;;;5.80;3.40;;;;;;;4.69;85.54;101260.61;107692;1251;97856;-57
2023/02/04 07:27:41;;;;;;;4.90;3.20;;;;;;;5.34;84.89;101261.70;107682;1250;88002;-57
2023/02/04 07:30:17;;;;;;;5.50;3.10;;;;;;;5.74;83.52;101272.23;107672;1250;95057;-58
2023/02/04 07:32:53;;;;;;;4.70;3.00;;;;;;;6.05;82.81;101281.46;107628;1251;78842;-56
2023/02/04 07:35:31;;;;;;;4.90;3.30;;;;;;;6.52;82.07;101286.19;107717;1253;81127;-60
2023/02/04 07:38:08;;;;;;;4.30;3.00;;;;;;;6.72;80.91;101292.73;107675;1251;98452;-60
2023/02/04 07:40:43;;;;;;;4.90;3.00;;;;;;;6.46;80.24;101299.08;107659;1254;88681;-59
2023/02/04 07:43:25;;;;;;;5.70;4.20;;;;;;;6.65;79.72;101300.43;107598;1253;94932;-58
2023/02/04 07:46:04;;;;;;;23.90;14.50;;;;;;;7.27;78.48;101295.73;107559;1252;78216;-58
2023/02/04 07:48:41;;;;;;;41.20;28.10;;;;;;;8.19;77.76;101301.61;107565;1253;83221;-60
2023/02/04 07:51:23;;;;;;;20.20;14.80;;;;;;;8.80;76.12;101302.60;107553;1256;99939;-60
2023/02/04 07:54:04;;;;;;;17.90;13.20;;;;;;;9.27;75.33;101307.76;107675;1253;87537;-58
2023/02/04 07:56:46;;;;;;;21.30;19.00;;;;;;;9.74;73.68;101312.27;107666;1252;93138;-57
2023/02/04 07:59:25;;;;;;;15.30;12.20;;;;;;;10.04;72.86;101319.17;107647;1252;79218;-60
2023/02/04 08:02:02;;;;;;;12.50;10.20;;;;;;;9.93;71.59;101330.61;107693;1253;82511;-58
2023/02/04 08:04:44;;;;;;;13.60;10.60;;;;;;;9.93;70.62;101333.81;107607;1253;96774;-56
2023/02/04 08:07:20;;;;;;;12.00;9.00;;;;;;;9.78;70.88;101338.44;107633;1253;86447;-56
2023/02/04 08:10:00;;;;;;;7.70;5.30;;;;;;;9.96;69.03;101342.14;107594;1252;93067;-57
2023/02/04 08:12:40;;;;;;;13.80;9.70;;;;;;;9.81;68.42;101344.48;107668;1251;80130;-57
2023/02/04 08:15:20;;;;;;;19.10;14.60;;;;;;;9.62;67.41;101349.94;107684;1253;82535;-56
2023/02/04 08:18:00;;;;;;;35.00;26.70;;;;;;;9.27;65.46;101361.29;107577;1255;99317;-56
2023/02/04 08:20:40;;;;;;;20.70;18.10;;;;;;;9.54;65.87;101364.09;107638;1255;88019;-56
2023/02/04 08:23:21;;;;;;;21.00;16.40;;;;;;;9.70;65.03;101364.02;107656;1255;95527;-57
2023/02/04 08:26:05;;;;;;;16.90;13.60;;;;;;;10.02;63.55;101368.95;107581;1253;79419;-57
2023/02/04 08:28:44;;;;;;;18.20;14.60;;;;;;;10.06;63.39;101364.10;107590;1252;81792;-56
2023/02/04 08:31:24;;;;;;;13.60;10.40;;;;;;;9.96;62.73;101369.83;107586;1255;99295;-62
2023/02/04 08:34:00;;;;;;;8.80;7.10;;;;;;;9.93;62.66;101378.48;107642;1253;88878;-57
2023/02/04 08:36:43;;;;;;;20.60;16.60;;;;;;;9.66;60.62;101386.33;107593;1253;92761;-56
2023/02/04 08:39:21;;;;;;;13.40;10.30;;;;;;;8.38;60.40;101393.67;107607;1255;80683;-55
2023/02/04 08:41:59;;;;;;;8.00;5.30;;;;;;;6.86;60.60;101406.86;107638;1250;80204;-65
2023/02/04 08:44:37;;;;;;;11.00;7.70;;;;;;;5.57;61.24;101414.71;107700;1254;97951;-57
2023/02/04 08:47:13;;;;;;;14.90;10.10;;;;;;;4.66;61.74;101420.90;107694;1254;87948;-59
2023/02/04 08:49:48;;;;;;;12.60;9.20;;;;;;;3.87;62.51;101415.23;107715;1251;93655;-56
2023/02/04 08:52:25;;;;;;;5.70;3.90;;;;;;;3.34;63.80;101414.88;107670;1253;79240;-57
2023/02/04 08:55:01;;;;;;;11.40;7.80;;;;;;;3.80;64.02;101411.70;107740;1254;82844;-59
2023/02/04 08:57:40;;;;;;;15.30;11.50;;;;;;;4.75;63.95;101409.67;107693;1251;98484;-58
2023/02/04 09:00:18;;;;;;;11.70;8.90;;;;;;;5.16;63.38;101401.86;107677;1253;90369;-59
2023/02/04 09:02:54;;;;;;;10.60;7.00;;;;;;;5.70;62.98;101400.74;107671;1251;95480;-59
2023/02/04 09:05:34;;;;;;;5.30;3.30;;;;;;;6.48;63.23;101404.29;107708;1250;81215;-59
2023/02/04 09:08:11;;;;;;;8.70;6.50;;;;;;;6.97;62.17;101410.73;107740;1251;81132;-58
2023/02/04 09:10:51;;;;;;;14.20;10.40;;;;;;;7.09;61.14;101399.70;107628;1251;98080;-58
2023/02/04 09:13:26;;;;;;;3.70;2.30;;;;;;;7.29;61.30;101401.79;107646;1251;88112;-58
2023/02/04 09:16:04;;;;;;;10.20;6.20;;;;;;;7.59;60.77;101398.70;107694;1251;93169;-59
2023/02/04 09:18:45;;;;;;;8.30;5.70;;;;;;;8.21;60.61;101402.55;107669;1251;79825;-58
2023/02/04 09:21:22;;;;;;;9.20;6.00;;;;;;;8.52;60.06;101414.17;107660;1251;81595;-58
2023/02/04 09:23:59;;;;;;;14.40;9.10;;;;;;;8.73;59.57;101415.70;107643;1251;99134;-59
2023/02/04 09:26:39;;;;;;;8.10;4.90;;;;;;;8.53;59.46;101421.09;107670;1251;88863;-59
2023/02/04 09:29:22;;;;;;;9.70;6.10;;;;;;;8.70;59.28;101425.69;107620;1251;94909;-61
2023/02/04 09:32:03;;;;;;;11.30;7.70;;;;;;;8.69;59.05;101441.57;107681;1254;79915;-59
2023/02/04 09:34:42;;;;;;;14.50;10.10;;;;;;;8.99;58.56;101444.17;107701;1251;82129;-61
2023/02/04 09:37:23;;;;;;;8.80;7.80;;;;;;;9.11;58.38;101449.74;107683;1253;96552;-60
2023/02/04 09:39:58;;;;;;;5.70;5.00;;;;;;;9.15;57.71;101447.93;107755;1254;88767;-58
2023/02/04 09:42:38;;;;;;;8.20;7.00;;;;;;;9.21;57.11;101456.98;107661;1251;95985;-58
2023/02/04 09:45:22;;;;;;;9.80;8.40;;;;;;;8.96;57.27;101468.73;107679;1251;80274;-61
2023/02/04 09:48:05;;;;;;;15.00;12.70;;;;;;;9.29;56.52;101473.40;107685;1251;82284;-60
2023/02/04 09:50:50;;;;;;;14.00;11.50;;;;;;;8.95;55.74;101479.44;107614;1253;98607;-57
2023/02/04 09:53:30;;;;;;;25.30;22.50;;;;;;;9.16;56.69;101481.02;107704;1251;88043;-61
2023/02/04 09:56:13;;;;;;;21.10;16.60;;;;;;;9.22;56.21;101485.70;107653;1254;94448;-58
2023/02/04 09:58:51;;;;;;;24.30;19.60;;;;;;;9.05;55.95;101483.14;107645;1253;77404;-61
2023/02/04 10:01:30;;;;;;;17.90;14.40;;;;;;;8.92;55.44;101489.10;107671;1251;81100;-60
2023/02/04 10:04:11;;;;;;;15.30;12.90;;;;;;;9.09;55.55;101497.60;107615;1254;95368;-57
2023/02/04 10:06:46;;;;;;;15.60;13.50;;;;;;;8.77;55.15;101497.95;107646;1251;89046;-58
2023/02/04 10:09:21;;;;;;;13.90;11.30;;;;;;;8.78;55.64;101497.84;107700;1251;94333;-60
2023/02/04 10:11:58;;;;;;;18.10;15.70;;;;;;;8.80;55.51;101496.56;107803;1251;80836;-62
2023/02/04 10:14:35;;;;;;;17.60;15.20;;;;;;;8.81;55.37;101501.44;107754;1251;81257;-63
2023/02/04 10:17:23;;;;;;;14.80;12.40;;;;;;;8.44;55.16;101504.48;107652;1251;96610;-62
2023/02/04 10:20:01;;;;;;;33.30;20.20;;;;;;;8.61;55.06;101502.04;107694;1254;88342;-66
2023/02/04 10:22:41;;;;;;;27.00;15.50;;;;;;;8.36;54.43;101502.68;107667;1251;93430;-64
2023/02/04 10:25:21;;;;;;;8.40;5.00;;;;;;;7.95;54.76;101504.54;107959;1251;78823;-65
2023/02/04 10:27:58;;;;;;;11.60;7.10;;;;;;;7.73;55.25;101511.83;108176;1251;81991;-64
2023/02/04 10:30:42;;;;;;;10.90;7.40;;;;;;;7.31;55.29;101514.07;107764;1251;98965;-61
2023/02/04 10:33:25;;;;;;;11.10;7.80;;;;;;;6.42;55.34;101524.20;107704;1251;88308;-64
2023/02/04 10:36:01;;;;;;;11.70;7.80;;;;;;;5.49;56.14;101526.58;107653;1254;95068;-66
2023/02/04 10:38:38;;;;;;;9.10;6.50;;;;;;;5.00;56.53;101530.86;107670;1251;78788;-64
2023/02/04 10:41:16;;;;;;;10.70;5.40;;;;;;;4.78;57.31;101533.04;107659;1251;82591;-64
2023/02/04 10:44:05;;;;;;;18.00;14.60;;;;;;;4.61;58.03;101533.76;107694;1251;96491;-61
2023/02/04 10:46:52;;;;;;;9.00;6.30;;;;;;;4.51;58.04;101539.73;107632;1251;87129;-61
2023/02/04 10:49:31;;;;;;;;;;;;;;;4.59;58.42;101544.46;107662;1254;95777;-58
2023/02/04 10:52:19;;;;;;;14.90;12.10;;;;;;;4.21;59.03;101543.94;107633;1251;76443;-57
2023/02/04 10:54:57;;;;;;;13.10;9.80;;;;;;;4.02;59.64;101552.02;107711;1251;82459;-59
2023/02/04 10:57:44;;;;;;;10.60;7.50;;;;;;;3.67;59.96;101556.57;107655;1251;97561;-58
2023/02/04 11:00:25;;;;;;;12.30;7.70;;;;;;;3.65;60.56;101552.61;107659;1251;87888;-60
2023/02/04 11:03:07;;;;;;;13.10;7.20;;;;;;;3.50;60.73;101552.86;107677;1251;92480;-60
2023/02/04 11:05:42;;;;;;;12.80;7.70;;;;;;;3.46;61.12;101554.79;107755;1252;79400;-59
2023/02/04 11:08:27;;;;;;;15.90;8.40;;;;;;;3.25;61.32;101549.56;107754;1251;83224;-61
2023/02/04 11:11:09;;;;;;;11.10;6.60;;;;;;;3.23;61.75;101545.66;107803;1251;96548;-61
2023/02/04 11:13:58;;;;;;;8.10;4.80;;;;;;;3.20;62.10;101537.48;107839;1252;89064;-58
2023/02/04 11:16:47;;;;;;;9.70;5.60;;;;;;;3.25;62.27;101541.58;107643;1250;93810;-57
2023/02/04 11:19:37;;;;;;;8.90;5.30;;;;;;;3.43;62.62;101546.11;107647;1251;80233;-57
2023/02/04 11:22:36;;;;;;;9.20;4.10;;;;;;;3.47;62.98;101545.45;107652;1251;83260;-58
2023/02/04 11:25:41;;;;;;;6.20;4.20;;;;;;;3.48;62.88;101548.54;107794;1254;96704;-59
2023/02/04 11:28:27;;;;;;;6.80;4.40;;;;;;;3.43;62.92;101549.79;107782;1251;89349;-61
2023/02/04 11:31:25;;;;;;;7.80;5.50;;;;;;;3.42;63.22;101563.46;107756;1251;95463;-60
2023/02/04 11:34:32;;;;;;;12.00;8.20;;;;;;;3.13;63.22;101561.02;107730;1250;79635;-60
2023/02/04 11:37:30;;;;;;;16.90;11.20;;;;;;;2.87;63.38;101562.20;107629;1251;81371;-59
2023/02/04 11:40:21;;;;;;;16.20;8.50;;;;;;;2.70;63.72;101562.71;107694;1251;98810;-58
2023/02/04 11:43:02;;;;;;;8.90;5.70;;;;;;;2.62;63.74;101565.79;107710;1254;89255;-58
2023/02/04 11:45:40;;;;;;;11.60;8.40;;;;;;;2.57;64.19;101570.67;107869;1251;95105;-61
2023/02/04 11:48:20;;;;;;;10.60;6.80;;;;;;;2.55;64.20;101566.89;107782;1253;80080;-60
2023/02/04 11:51:04;;;;;;;13.20;8.90;;;;;;;2.60;64.14;101560.99;107837;1251;82647;-61
2023/02/04 11:53:41;;;;;;;10.90;7.00;;;;;;;2.38;64.51;101563.33;107922;1253;99037;-57
2023/02/04 11:56:33;;;;;;;9.80;6.90;;;;;;;2.35;64.77;101562.59;107309;1251;437185;-58
2023/02/04 11:59:20;;;;;;;29.60;15.00;;;;;;;2.42;64.97;101561.42;107694;1254;95489;-60
2023/02/04 12:02:16;;;;;;;20.00;11.00;;;;;;;2.44;65.22;101567.46;107616;1254;78237;-60
2023/02/04 12:05:12;;;;;;;10.30;6.70;;;;;;;2.39;65.44;101568.05;107656;1253;81708;-60
2023/02/04 12:07:49;;;;;;;11.90;6.70;;;;;;;2.45;65.61;101572.61;107652;1251;97006;-59
2023/02/04 12:10:36;;;;;;;17.00;9.50;;;;;;;2.44;65.88;101569.60;107642;1251;89232;-60
2023/02/04 12:13:26;;;;;;;11.10;6.60;;;;;;;2.35;65.99;101566.54;107699;1251;94315;-60
2023/02/04 12:16:07;;;;;;;10.20;5.40;;;;;;;2.39;66.09;101568.17;107885;1251;78022;-61
2023/02/04 12:18:45;;;;;;;12.60;7.30;;;;;;;2.43;66.28;101572.03;107836;1254;81786;-58
2023/02/04 12:21:27;;;;;;;10.50;6.20;;;;;;;2.31;66.42;101576.77;107677;1251;97406;-57
2023/02/04 12:24:05;;;;;;;11.80;6.30;;;;;;;2.23;66.52;101573.23;107762;1251;89774;-60